createdAt,value
2022-10-01T00:01:27.950Z,41.40
2022-10-01T00:03:55.843Z,44.10
2022-10-01T00:06:24.869Z,50.00
2022-10-01T00:08:52.906Z,48.00
2022-10-01T00:11:24.634Z,53.90
2022-10-01T00:13:54.195Z,61.20
2022-10-01T00:16:27.558Z,56.00
2022-10-01T00:18:57.580Z,55.90
2022-10-01T00:21:28.554Z,53.00
2022-10-01T00:24:05.232Z,48.80
2022-10-01T00:26:35.191Z,50.80
2022-10-01T00:29:11.982Z,54.00
2022-10-01T00:31:40.031Z,54.20
2022-10-01T00:34:09.795Z,58.30
2022-10-01T00:36:37.567Z,56.00
2022-10-01T00:39:05.405Z,55.40
2022-10-01T00:41:34.813Z,52.30
2022-10-01T00:44:36.366Z,55.50
2022-10-01T00:47:19.466Z,54.80
2022-10-01T00:49:48.667Z,54.20
2022-10-01T00:52:22.853Z,61.70
2022-10-01T00:54:55.923Z,56.90
2022-10-01T00:57:26.672Z,62.60
2022-10-01T00:59:57.192Z,56.30
2022-10-01T01:02:25.292Z,57.70
2022-10-01T01:04:53.137Z,56.30
2022-10-01T01:07:22.122Z,54.60
2022-10-01T01:09:53.517Z,62.00
2022-10-01T01:12:59.785Z,60.60
2022-10-01T01:15:33.154Z,61.30
2022-10-01T01:18:19.740Z,62.60
2022-10-01T01:21:02.747Z,60.60
2022-10-01T01:23:51.277Z,59.30
2022-10-01T01:26:54.795Z,60.10
2022-10-01T01:29:41.381Z,55.00
2022-10-01T01:32:15.062Z,61.00
2022-10-01T01:34:46.917Z,57.70
2022-10-01T01:37:19.358Z,58.90
2022-10-01T01:39:51.604Z,56.80
2022-10-01T01:42:25.826Z,53.50
2022-10-01T01:44:58.298Z,59.30
2022-10-01T01:47:30.570Z,56.70
2022-10-01T01:50:00.275Z,58.10
2022-10-01T01:52:29.004Z,54.90
2022-10-01T01:54:57.824Z,54.00
2022-10-01T01:57:26.692Z,53.00
2022-10-01T01:59:55.160Z,55.20
2022-10-01T02:02:33.325Z,50.60
2022-10-01T02:05:05.445Z,54.00
2022-10-01T02:07:47.333Z,48.60
2022-10-01T02:10:47.156Z,47.50
2022-10-01T02:13:30.029Z,45.30
2022-10-01T02:16:04.553Z,45.30
2022-10-01T02:18:46.605Z,41.60
2022-10-01T02:21:33.209Z,50.50
2022-10-01T02:24:24.858Z,43.20
2022-10-01T02:26:55.645Z,42.30
2022-10-01T02:29:24.179Z,44.40
2022-10-01T02:31:55.839Z,46.50
2022-10-01T02:34:30.368Z,44.20
2022-10-01T02:37:02.765Z,43.80
2022-10-01T02:39:33.090Z,41.20
2022-10-01T02:42:03.212Z,38.40
2022-10-01T02:44:40.366Z,46.00
2022-10-01T02:47:18.326Z,42.90
2022-10-01T02:49:47.962Z,43.30
2022-10-01T02:52:42.002Z,41.80
2022-10-01T02:55:18.197Z,46.70
2022-10-01T02:57:46.292Z,46.20
2022-10-01T03:00:16.981Z,39.50
2022-10-01T03:02:44.817Z,41.00
2022-10-01T03:05:12.932Z,41.00
2022-10-01T03:07:43.753Z,44.90
2022-10-01T03:10:12.742Z,49.60
2022-10-01T03:12:45.367Z,44.20
2022-10-01T03:15:16.162Z,43.30
2022-10-01T03:17:43.992Z,44.20
2022-10-01T03:20:12.584Z,42.00
2022-10-01T03:22:40.562Z,42.80
2022-10-01T03:25:08.816Z,43.00
2022-10-01T03:27:36.792Z,45.70
2022-10-01T03:30:05.829Z,60.40
2022-10-01T03:32:33.934Z,64.50
2022-10-01T03:35:01.806Z,71.80
2022-10-01T03:37:29.698Z,63.50
2022-10-01T03:39:57.482Z,66.50
2022-10-01T03:42:25.285Z,48.80
2022-10-01T03:44:53.369Z,42.70
2022-10-01T03:47:24.425Z,44.70
2022-10-01T03:49:52.282Z,41.10
2022-10-01T03:52:20.540Z,45.20
2022-10-01T03:54:48.407Z,40.80
2022-10-01T03:57:16.169Z,41.00
2022-10-01T03:59:44.416Z,37.40
2022-10-01T04:02:12.331Z,37.40
2022-10-01T04:04:40.379Z,36.90
2022-10-01T04:07:08.516Z,37.90
2022-10-01T04:09:37.677Z,37.10
2022-10-01T04:12:05.927Z,37.10
2022-10-01T04:14:34.194Z,38.90
2022-10-01T04:17:01.940Z,34.70
2022-10-01T04:19:29.759Z,35.00
2022-10-01T04:21:57.842Z,36.20
2022-10-01T04:24:25.792Z,33.70
2022-10-01T04:26:53.629Z,32.90
2022-10-01T04:29:21.942Z,34.70
2022-10-01T04:31:49.935Z,36.80
2022-10-01T04:34:17.776Z,38.40
2022-10-01T04:36:45.912Z,37.50
2022-10-01T04:39:13.921Z,38.60
2022-10-01T04:41:41.648Z,36.90
2022-10-01T04:44:10.541Z,39.90
2022-10-01T04:46:38.810Z,36.10
2022-10-01T04:49:06.561Z,39.00
2022-10-01T04:51:34.651Z,39.90
2022-10-01T04:54:02.834Z,42.20
2022-10-01T04:56:30.590Z,39.90
2022-10-01T04:58:58.498Z,35.50
2022-10-01T05:01:26.338Z,36.50
2022-10-01T05:03:54.056Z,37.60
2022-10-01T05:06:22.052Z,35.30
2022-10-01T05:08:51.131Z,40.00
2022-10-01T05:11:19.059Z,34.90
2022-10-01T05:13:47.054Z,35.80
2022-10-01T05:16:15.109Z,39.10
2022-10-01T05:18:43.567Z,39.00
2022-10-01T05:21:11.838Z,36.40
2022-10-01T05:23:39.596Z,34.20
2022-10-01T05:26:08.176Z,36.30
2022-10-01T05:28:36.278Z,35.70
2022-10-01T05:31:04.708Z,33.90
2022-10-01T05:33:34.207Z,34.60
2022-10-01T05:36:05.301Z,38.60
2022-10-01T05:38:37.298Z,46.40
2022-10-01T05:41:05.576Z,46.90
2022-10-01T05:43:33.355Z,48.50
2022-10-01T05:46:05.594Z,42.10
2022-10-01T05:48:37.241Z,36.90
2022-10-01T05:51:16.265Z,38.40
2022-10-01T05:53:48.228Z,39.70
2022-10-01T05:56:22.773Z,41.60
2022-10-01T05:58:51.009Z,43.10
2022-10-01T06:01:18.777Z,42.20
2022-10-01T06:03:50.347Z,40.20
2022-10-01T06:06:23.220Z,38.10
2022-10-01T06:08:51.730Z,38.00
2022-10-01T06:11:22.663Z,39.30
2022-10-01T06:13:51.059Z,43.70
2022-10-01T06:16:20.926Z,45.10
2022-10-01T06:18:49.749Z,43.30
2022-10-01T06:21:17.514Z,47.60
2022-10-01T06:23:45.907Z,45.40
2022-10-01T06:26:13.858Z,51.00
2022-10-01T06:28:41.606Z,45.70
2022-10-01T06:31:09.623Z,53.90
2022-10-01T06:33:37.603Z,49.60
2022-10-01T06:36:05.812Z,50.60
2022-10-01T06:38:33.645Z,50.40
2022-10-01T06:41:02.320Z,56.40
2022-10-01T06:43:31.952Z,52.40
2022-10-01T06:46:05.136Z,47.90
2022-10-01T06:48:37.071Z,44.60
2022-10-01T06:51:05.889Z,38.70
2022-10-01T06:53:33.613Z,45.20
2022-10-01T06:56:06.705Z,43.20
2022-10-01T06:58:35.151Z,48.10
2022-10-01T07:01:04.022Z,41.40
2022-10-01T07:03:32.040Z,39.50
2022-10-01T07:06:05.514Z,39.60
2022-10-01T07:08:33.618Z,39.00
2022-10-01T07:11:03.423Z,41.00
2022-10-01T07:13:31.634Z,40.60
2022-10-01T07:15:59.578Z,37.40
2022-10-01T07:18:27.685Z,35.10
2022-10-01T07:20:57.482Z,36.90
2022-10-01T07:23:25.617Z,33.40
2022-10-01T07:25:53.455Z,36.10
2022-10-01T07:28:25.757Z,40.20
2022-10-01T07:31:06.996Z,34.40
2022-10-01T07:33:35.099Z,30.20
2022-10-01T07:36:05.630Z,31.00
2022-10-01T07:38:34.071Z,32.00
2022-10-01T07:41:05.240Z,29.20
2022-10-01T07:43:34.953Z,33.50
2022-10-01T07:46:03.723Z,29.80
2022-10-01T07:48:31.744Z,28.30
2022-10-01T07:50:59.888Z,28.40
2022-10-01T07:53:28.349Z,27.60
2022-10-01T07:55:56.908Z,28.30
2022-10-01T07:58:24.896Z,30.10
2022-10-01T08:00:58.210Z,26.80
2022-10-01T08:03:26.403Z,30.40
2022-10-01T08:05:54.749Z,25.40
2022-10-01T08:08:22.994Z,27.80
2022-10-01T08:10:51.061Z,27.80
2022-10-01T08:13:19.157Z,25.60
2022-10-01T08:15:50.673Z,28.40
2022-10-01T08:18:18.931Z,29.30
2022-10-01T08:20:46.821Z,25.70
2022-10-01T08:23:15.958Z,30.50
2022-10-01T08:25:45.971Z,27.20
2022-10-01T08:28:14.609Z,27.60
2022-10-01T08:30:42.998Z,24.40
2022-10-01T08:33:12.964Z,26.10
2022-10-01T08:35:41.582Z,28.70
2022-10-01T08:38:11.124Z,28.00
2022-10-01T08:40:46.783Z,29.20
2022-10-01T08:43:38.543Z,24.50
2022-10-01T08:46:13.128Z,25.30
2022-10-01T08:48:47.150Z,28.50
2022-10-01T08:51:40.148Z,26.00
2022-10-01T08:54:24.228Z,24.40
2022-10-01T08:56:55.031Z,26.60
2022-10-01T08:59:44.799Z,29.50
2022-10-01T09:02:30.068Z,24.80
2022-10-01T09:05:24.892Z,23.00
2022-10-01T09:08:05.067Z,22.70
2022-10-01T09:11:08.406Z,21.90
2022-10-01T09:14:44.108Z,22.00
2022-10-01T09:17:23.877Z,23.10
2022-10-01T09:20:27.280Z,21.20
2022-10-01T09:23:20.165Z,23.60
2022-10-01T09:25:51.339Z,21.70
2022-10-01T09:28:25.345Z,21.00
2022-10-01T09:31:12.293Z,20.60
2022-10-01T09:33:53.133Z,17.40
2022-10-01T09:36:38.455Z,19.30
2022-10-01T09:39:27.417Z,19.10
2022-10-01T09:41:56.284Z,18.60
2022-10-01T09:44:30.275Z,17.30
2022-10-01T09:46:58.642Z,17.10
2022-10-01T09:49:43.789Z,14.20
2022-10-01T09:52:27.245Z,15.20
2022-10-01T09:55:05.319Z,12.80
2022-10-01T09:57:43.460Z,12.60
2022-10-01T10:00:18.302Z,13.20
2022-10-01T10:02:51.676Z,15.40
2022-10-01T10:05:23.735Z,16.00
2022-10-01T10:07:59.754Z,16.80
2022-10-01T10:10:39.673Z,14.00
2022-10-01T10:13:11.063Z,12.70
2022-10-01T10:15:49.363Z,15.40
2022-10-01T10:18:24.088Z,13.20
2022-10-01T10:20:54.071Z,11.40
2022-10-01T10:23:29.485Z,12.60
2022-10-01T10:26:02.836Z,15.00
2022-10-01T10:28:46.790Z,13.70
2022-10-01T10:31:22.169Z,12.30
2022-10-01T10:34:16.840Z,11.10
2022-10-01T10:36:46.286Z,11.20
2022-10-01T10:39:30.229Z,11.90
2022-10-01T10:42:00.140Z,10.70
2022-10-01T10:44:35.252Z,12.00
2022-10-01T10:47:15.059Z,10.80
2022-10-01T10:50:02.273Z,11.10
2022-10-01T10:52:36.575Z,12.00
2022-10-01T10:55:25.311Z,13.50
2022-10-01T10:57:57.325Z,11.70
2022-10-01T11:00:29.947Z,10.10
2022-10-01T11:03:00.558Z,10.80
2022-10-01T11:05:33.013Z,10.90
2022-10-01T11:08:04.023Z,10.30
2022-10-01T11:10:44.678Z,10.60
2022-10-01T11:13:36.516Z,12.40
2022-10-01T11:16:38.695Z,11.00
2022-10-01T11:19:30.417Z,10.80
2022-10-01T11:22:06.275Z,11.00
2022-10-01T11:25:05.230Z,9.70
2022-10-01T11:27:55.232Z,11.00
2022-10-01T11:30:26.590Z,9.80
2022-10-01T11:33:28.192Z,13.40
2022-10-01T11:36:25.007Z,10.80
2022-10-01T11:39:05.852Z,10.50
2022-10-01T11:41:46.782Z,10.90
2022-10-01T11:44:29.049Z,12.10
2022-10-01T11:47:20.819Z,12.30
2022-10-01T11:50:20.595Z,8.30
2022-10-01T11:52:56.936Z,9.50
2022-10-01T11:55:43.738Z,9.80
2022-10-01T11:58:49.364Z,12.30
2022-10-01T12:01:32.140Z,9.90
2022-10-01T12:04:32.529Z,10.00
2022-10-01T12:07:12.258Z,8.20
2022-10-01T12:09:55.083Z,9.50
2022-10-01T12:12:28.192Z,9.00
2022-10-01T12:15:06.937Z,11.70
2022-10-01T12:17:45.387Z,10.30
2022-10-01T12:20:33.328Z,12.10
2022-10-01T12:23:07.746Z,12.40
2022-10-01T12:26:01.289Z,12.20
2022-10-01T12:29:00.169Z,10.50
2022-10-01T12:31:52.153Z,12.70
2022-10-01T12:34:35.142Z,13.00
2022-10-01T12:37:20.457Z,10.70
2022-10-01T12:40:03.797Z,12.40
2022-10-01T12:43:04.272Z,12.40
2022-10-01T12:45:45.534Z,10.40
2022-10-01T12:48:36.844Z,9.00
2022-10-01T12:51:32.067Z,21.60
2022-10-01T12:54:21.998Z,15.40
2022-10-01T12:57:15.591Z,9.10
2022-10-01T12:59:59.427Z,10.50
2022-10-01T13:03:21.583Z,10.60
2022-10-01T13:06:14.288Z,13.50
2022-10-01T13:08:47.909Z,14.50
2022-10-01T13:12:01.402Z,11.80
2022-10-01T13:14:33.253Z,10.00
2022-10-01T13:17:12.322Z,9.40
2022-10-01T13:19:51.356Z,11.50
2022-10-01T13:22:37.261Z,10.50
2022-10-01T13:25:37.597Z,9.00
2022-10-01T13:28:56.149Z,9.70
2022-10-01T13:31:51.770Z,10.40
2022-10-01T13:34:28.054Z,9.40
2022-10-01T13:36:56.053Z,10.00
2022-10-01T13:39:24.631Z,15.50
2022-10-01T13:41:57.711Z,10.10
2022-10-01T13:44:34.751Z,10.40
2022-10-01T13:47:07.245Z,16.40
2022-10-01T13:49:37.072Z,14.20
2022-10-01T13:52:06.231Z,12.70
2022-10-01T13:54:40.060Z,11.50
2022-10-01T13:57:22.954Z,21.90
2022-10-01T14:00:12.959Z,16.10
2022-10-01T14:03:23.836Z,10.20
2022-10-01T14:05:57.924Z,12.20
2022-10-01T14:08:34.945Z,13.80
2022-10-01T14:11:28.713Z,13.80
2022-10-01T14:14:21.597Z,12.90
2022-10-01T14:16:50.150Z,15.50
2022-10-01T14:19:23.976Z,14.30
2022-10-01T14:22:12.473Z,14.60
2022-10-01T14:25:05.023Z,12.00
2022-10-01T14:27:45.061Z,13.30
2022-10-01T14:30:16.569Z,14.50
2022-10-01T14:32:56.211Z,14.10
2022-10-01T14:35:53.332Z,15.40
2022-10-01T14:38:22.473Z,12.50
2022-10-01T14:40:52.034Z,13.20
2022-10-01T14:43:25.608Z,41.40
2022-10-01T14:45:59.840Z,14.90
2022-10-01T14:48:31.294Z,12.60
2022-10-01T14:51:06.071Z,15.20
2022-10-01T14:53:38.246Z,13.10
2022-10-01T14:56:14.351Z,15.40
2022-10-01T14:58:46.050Z,14.00
2022-10-01T15:01:25.387Z,15.30
2022-10-01T15:03:54.719Z,15.30
2022-10-01T15:06:28.216Z,19.90
2022-10-01T15:09:08.410Z,15.20
2022-10-01T15:11:44.687Z,16.30
2022-10-01T15:14:22.016Z,17.10
2022-10-01T15:16:51.385Z,21.10
2022-10-01T15:19:21.941Z,23.10
2022-10-01T15:21:55.964Z,18.20
2022-10-01T15:24:46.732Z,17.00
2022-10-01T15:27:19.618Z,16.90
2022-10-01T15:29:56.096Z,19.90
2022-10-01T15:32:28.226Z,18.90
2022-10-01T15:35:00.179Z,16.90
2022-10-01T15:37:36.785Z,17.10
2022-10-01T15:40:08.220Z,20.30
2022-10-01T15:42:36.703Z,16.90
2022-10-01T15:45:08.095Z,21.50
2022-10-01T15:47:38.113Z,24.90
2022-10-01T15:50:06.193Z,20.80
2022-10-01T15:53:10.905Z,27.00
2022-10-01T15:55:48.768Z,25.00
2022-10-01T15:58:22.877Z,36.80
2022-10-01T16:01:00.045Z,28.10
2022-10-01T16:03:42.628Z,32.30
2022-10-01T16:06:28.896Z,23.40
2022-10-01T16:09:18.366Z,22.70
2022-10-01T16:11:59.416Z,19.70
2022-10-01T16:14:41.035Z,22.00
2022-10-01T16:17:18.095Z,18.20
2022-10-01T16:20:29.741Z,20.30
2022-10-01T16:23:35.727Z,22.10
2022-10-01T16:26:32.732Z,23.00
2022-10-01T16:29:43.839Z,26.10
2022-10-01T16:32:15.019Z,30.60
2022-10-01T16:34:42.963Z,31.00
2022-10-01T16:37:11.047Z,26.10
2022-10-01T16:39:39.008Z,21.50
2022-10-01T16:42:23.267Z,28.90
2022-10-01T16:44:52.607Z,29.40
2022-10-01T16:47:20.441Z,23.70
2022-10-01T16:49:50.343Z,25.20
2022-10-01T16:52:18.329Z,23.50
2022-10-01T16:54:48.388Z,25.40
2022-10-01T16:57:19.108Z,23.30
2022-10-01T16:59:47.175Z,26.20
2022-10-01T17:02:15.102Z,31.10
2022-10-01T17:04:42.984Z,28.10
2022-10-01T17:07:10.933Z,31.00
2022-10-01T17:09:38.702Z,28.60
2022-10-01T17:12:06.914Z,31.90
2022-10-01T17:14:34.936Z,28.90
2022-10-01T17:17:02.885Z,31.90
2022-10-01T17:19:30.922Z,33.00
2022-10-01T17:21:58.905Z,35.50
2022-10-01T17:24:27.124Z,31.50
2022-10-01T17:26:57.798Z,33.00
2022-10-01T17:29:26.993Z,32.40
2022-10-01T17:31:54.912Z,34.70
2022-10-01T17:34:23.046Z,31.60
2022-10-01T17:36:51.950Z,28.60
2022-10-01T17:39:19.829Z,27.90
2022-10-01T17:41:47.841Z,27.60
2022-10-01T17:44:15.785Z,27.60
2022-10-01T17:46:43.937Z,31.60
2022-10-01T17:49:11.838Z,30.60
2022-10-01T17:51:40.242Z,30.90
2022-10-01T17:54:08.428Z,30.70
2022-10-01T17:56:38.518Z,33.30
2022-10-01T17:59:06.671Z,33.90
2022-10-01T18:01:34.648Z,33.30
2022-10-01T18:04:03.926Z,32.80
2022-10-01T18:06:32.624Z,33.50
2022-10-01T18:09:00.759Z,34.50
2022-10-01T18:11:29.443Z,36.20
2022-10-01T18:13:57.769Z,39.10
2022-10-01T18:16:27.070Z,44.10
2022-10-01T18:21:47.997Z,45.10
2022-10-01T18:24:16.568Z,49.40
2022-10-01T18:26:45.926Z,47.30
2022-10-01T18:29:18.988Z,44.80
2022-10-01T18:31:51.919Z,45.30
2022-10-01T18:34:32.965Z,43.90
2022-10-01T18:37:24.878Z,43.30
2022-10-01T18:40:17.892Z,48.50
2022-10-01T18:42:59.546Z,38.30
2022-10-01T18:45:43.645Z,37.40
2022-10-01T18:48:21.786Z,34.40
2022-10-01T18:51:20.387Z,36.70
2022-10-01T18:53:53.949Z,36.30
2022-10-01T18:56:34.680Z,37.60
2022-10-01T18:59:09.955Z,38.00
2022-10-01T19:01:44.487Z,34.80
2022-10-01T19:04:27.702Z,33.20
2022-10-01T19:07:01.340Z,34.20
2022-10-01T19:09:56.814Z,37.60
2022-10-01T19:12:43.521Z,39.30
2022-10-01T19:15:26.859Z,33.70
2022-10-01T19:18:19.745Z,40.40
2022-10-01T19:21:12.955Z,34.60
2022-10-01T19:23:46.209Z,35.60
2022-10-01T19:26:23.349Z,31.20
2022-10-01T19:29:09.967Z,33.20
2022-10-01T19:32:02.792Z,35.50
2022-10-01T19:34:58.762Z,29.90
2022-10-01T19:37:36.846Z,32.50
2022-10-01T19:40:17.566Z,34.40
2022-10-01T19:42:54.291Z,34.60
2022-10-01T19:45:35.188Z,39.40
2022-10-01T19:48:12.741Z,38.70
2022-10-01T19:50:45.067Z,38.30
2022-10-01T19:53:28.120Z,36.60
2022-10-01T19:56:00.365Z,37.50
2022-10-01T19:58:30.735Z,40.30
2022-10-01T20:01:02.122Z,44.60
2022-10-01T20:03:33.376Z,45.20
2022-10-01T20:06:08.995Z,56.40
2022-10-01T20:08:52.959Z,50.00
2022-10-01T20:11:41.789Z,52.20
2022-10-01T20:14:46.644Z,64.10
2022-10-01T20:17:48.145Z,54.50
2022-10-01T20:20:53.578Z,37.20
2022-10-01T20:23:38.076Z,34.40
2022-10-01T20:26:14.746Z,32.80
2022-10-01T20:29:10.845Z,38.00
2022-10-01T20:31:47.450Z,36.90
2022-10-01T20:34:21.946Z,40.70
2022-10-01T20:37:25.116Z,40.90
2022-10-01T20:40:01.833Z,38.70
2022-10-01T20:42:35.562Z,40.30
2022-10-01T20:45:06.691Z,44.10
2022-10-01T20:47:46.898Z,44.00
2022-10-01T20:50:20.966Z,37.00
2022-10-01T20:53:10.581Z,39.00
2022-10-01T20:55:43.931Z,36.40
2022-10-01T20:58:34.575Z,34.70
2022-10-01T21:01:10.385Z,31.00
2022-10-01T21:03:46.553Z,34.30
2022-10-01T21:06:18.614Z,34.70
2022-10-01T21:09:00.833Z,32.90
2022-10-01T21:12:11.712Z,26.50
2022-10-01T21:14:46.367Z,23.70
2022-10-01T21:17:32.889Z,24.20
2022-10-01T21:20:34.297Z,17.00
2022-10-01T21:23:31.973Z,16.90
2022-10-01T21:26:15.380Z,16.30
2022-10-01T21:29:12.212Z,11.80
2022-10-01T21:32:03.291Z,12.80
2022-10-01T21:34:50.316Z,12.30
2022-10-01T21:37:34.443Z,12.70
2022-10-01T21:40:22.374Z,12.30
2022-10-01T21:43:08.318Z,16.00
2022-10-01T21:45:53.238Z,13.80
2022-10-01T21:48:53.925Z,13.30
2022-10-01T21:51:46.908Z,14.50
2022-10-01T21:54:45.874Z,14.50
2022-10-01T21:57:37.532Z,13.90
2022-10-01T22:00:22.288Z,13.90
2022-10-01T22:02:53.718Z,15.50
2022-10-01T22:05:29.477Z,16.10
2022-10-01T22:08:16.259Z,13.80
2022-10-01T22:10:51.137Z,11.90
2022-10-01T22:13:27.275Z,10.20
2022-10-01T22:16:07.355Z,9.30
2022-10-01T22:18:46.359Z,10.40
2022-10-01T22:21:34.802Z,8.90
2022-10-01T22:24:13.634Z,9.10
2022-10-01T22:27:11.564Z,10.70
2022-10-01T22:30:02.255Z,8.80
2022-10-01T22:32:35.718Z,8.30
2022-10-01T22:35:09.190Z,8.90
2022-10-01T22:37:47.116Z,9.80
2022-10-01T22:40:23.468Z,8.70
2022-10-01T22:43:17.798Z,8.00
2022-10-01T22:46:34.505Z,10.20
2022-10-01T22:49:14.902Z,7.40
2022-10-01T22:52:18.055Z,9.50
2022-10-01T22:55:01.325Z,9.30
2022-10-01T22:57:57.658Z,8.90
2022-10-01T23:00:26.376Z,7.80
2022-10-01T23:03:06.320Z,10.10
2022-10-01T23:05:52.340Z,8.20
2022-10-01T23:08:40.949Z,10.70
2022-10-01T23:11:27.786Z,9.40
2022-10-01T23:14:15.692Z,9.60
2022-10-01T23:17:01.481Z,11.20
2022-10-01T23:19:42.450Z,10.10
2022-10-01T23:22:41.361Z,9.30
2022-10-01T23:25:35.511Z,10.90
2022-10-01T23:28:19.130Z,10.90
2022-10-01T23:30:59.431Z,11.30
2022-10-01T23:33:52.557Z,11.40
2022-10-01T23:36:23.507Z,13.40
2022-10-01T23:39:25.192Z,12.40
2022-10-01T23:42:15.163Z,11.50
2022-10-01T23:44:59.648Z,10.00
2022-10-01T23:47:38.412Z,11.80
2022-10-01T23:50:17.674Z,11.20
2022-10-01T23:52:52.652Z,11.10
2022-10-01T23:55:54.522Z,12.90
2022-10-01T23:58:23.226Z,12.90
